Time;durP1;ratioP1;P1;durP2;ratioP2;P2;SDS_P1;SDS_P2;PMS_P1;PMS_P2;Temp;Humidity;BMP_temperature;BMP_pressure;BME280_temperature;BME280_humidity;BME280_pressure;Samples;Min_cycle;Max_cycle;Signal;HPM_P1;HPM_P2
2022/04/09 00:00:13;;;;;;;2.45;0.82;;;7.90;99.90;;;;;;5041728;28;20466;-77
2022/04/09 00:02:39;;;;;;;0.40;0.40;;;7.80;99.90;;;;;;5033377;28;20060;-77
2022/04/09 00:05:06;;;;;;;1.58;1.05;;;6.10;99.90;;;;;;5036732;28;20488;-78
2022/04/09 00:07:32;;;;;;;0.52;0.40;;;5.20;99.90;;;;;;5034168;28;20036;-77
2022/04/09 00:09:58;;;;;;;0.47;0.30;;;5.10;99.90;;;;;;5027715;28;20033;-77
2022/04/09 00:12:23;;;;;;;0.20;0.20;;;5.00;99.90;;;;;;5026578;28;20109;-79
2022/04/09 00:14:49;;;;;;;0.15;0.15;;;4.80;99.90;;;;;;5029544;28;20084;-80
2022/04/09 00:17:14;;;;;;;3.75;0.25;;;4.60;99.90;;;;;;5032737;28;20036;-80
2022/04/09 00:19:40;;;;;;;1.52;0.30;;;4.40;99.90;;;;;;5018951;28;20092;-80
2022/04/09 00:22:06;;;;;;;35.38;2.75;;;4.20;99.90;;;;;;5029664;28;20115;-79
2022/04/09 00:24:32;;;;;;;3.30;0.32;;;4.20;99.90;;;;;;5027613;28;20036;-79
2022/04/09 00:26:57;;;;;;;1.20;0.20;;;4.00;99.90;;;;;;5022371;28;20062;-78
2022/04/09 00:29:23;;;;;;;0.20;0.20;;;3.60;99.90;;;;;;5034118;28;20551;-77
2022/04/09 00:31:49;;;;;;;0.10;0.10;;;3.20;99.90;;;;;;5033177;28;20109;-80
2022/04/09 00:34:14;;;;;;;0.35;0.10;;;2.90;99.90;;;;;;5035326;28;20033;-78
2022/04/09 00:36:40;;;;;;;0.10;0.10;;;2.70;99.90;;;;;;5038035;28;20037;-80
2022/04/09 00:39:06;;;;;;;0.28;0.28;;;2.40;99.90;;;;;;5035702;28;20527;-79
2022/04/09 00:41:32;;;;;;;0.93;0.20;;;1.70;99.90;;;;;;5038977;28;20041;-82
2022/04/09 00:43:58;;;;;;;1.00;0.25;;;1.80;99.90;;;;;;5035059;28;20492;-81
2022/04/09 00:46:23;;;;;;;0.10;0.10;;;1.50;99.90;;;;;;5020633;28;20099;-78
2022/04/09 00:48:49;;;;;;;0.30;0.20;;;1.40;99.90;;;;;;5031178;28;20675;-80
2022/04/09 00:51:15;;;;;;;1.55;0.20;;;1.30;99.90;;;;;;5027734;28;20037;-79
2022/04/09 00:53:44;;;;;;;0.10;0.10;;;1.30;99.90;;;;;;5022927;28;20420;-79
2022/04/09 00:56:15;;;;;;;0.32;0.30;;;1.60;99.90;;;;;;5042612;28;20489;-82
2022/04/09 00:58:55;;;;;;;0.52;0.40;;;1.50;99.90;;;;;;5041505;28;20052;-79
2022/04/09 01:01:32;;;;;;;1.20;0.20;;;1.60;99.90;;;;;;5031627;28;20043;-79
2022/04/09 01:03:59;;;;;;;0.20;0.20;;;1.70;99.90;;;;;;5031271;28;20133;-82
2022/04/09 01:06:25;;;;;;;0.20;0.10;;;1.60;99.90;;;;;;5031974;28;20548;-80
2022/04/09 01:08:51;;;;;;;0.10;0.10;;;1.50;99.90;;;;;;5033612;28;20029;-79
2022/04/09 01:11:17;;;;;;;0.13;0.13;;;1.40;99.90;;;;;;5029358;28;20034;-80
2022/04/09 01:13:46;;;;;;;0.57;0.20;;;1.50;99.90;;;;;;5032083;28;20072;-82
2022/04/09 01:16:12;;;;;;;0.10;0.10;;;1.60;99.90;;;;;;5038800;28;20048;-79
2022/04/09 01:18:41;;;;;;;0.20;0.20;;;1.50;99.90;;;;;;5038559;28;20029;-77
2022/04/09 01:21:08;;;;;;;0.10;0.10;;;1.40;99.90;;;;;;5035264;28;20040;-79
2022/04/09 01:23:33;;;;;;;0.13;0.10;;;1.30;99.90;;;;;;5031578;28;20147;-76
2022/04/09 01:26:03;;;;;;;0.10;0.10;;;1.40;99.90;;;;;;5024695;28;20041;-77
2022/04/09 01:28:30;;;;;;;0.10;0.10;;;1.40;99.90;;;;;;5035574;28;20033;-79
2022/04/09 01:30:57;;;;;;;0.10;0.10;;;1.30;99.90;;;;;;5029628;28;20040;-79
2022/04/09 01:33:23;;;;;;;0.20;0.20;;;1.40;99.90;;;;;;5028222;28;20056;-77
2022/04/09 01:35:50;;;;;;;0.10;0.10;;;1.40;99.90;;;;;;5044051;28;20028;-86
2022/04/09 01:38:15;;;;;;;0.10;0.10;;;1.50;99.90;;;;;;5029251;28;20112;-79
2022/04/09 01:40:41;;;;;;;0.10;0.10;;;1.50;99.90;;;;;;5035760;28;20137;-78
2022/04/09 01:43:07;;;;;;;0.10;0.10;;;1.50;99.90;;;;;;5032170;28;20033;-78
2022/04/09 01:45:34;;;;;;;0.20;0.20;;;1.50;99.90;;;;;;5034097;28;20560;-81
2022/04/09 01:48:00;;;;;;;0.10;0.10;;;1.60;99.90;;;;;;5026547;28;20049;-79
2022/04/09 01:50:26;;;;;;;0.10;0.10;;;1.60;99.90;;;;;;5034135;28;20086;-77
2022/04/09 01:52:53;;;;;;;0.13;0.10;;;1.60;99.90;;;;;;5024459;28;20149;-78
2022/04/09 01:55:19;;;;;;;0.20;0.10;;;1.50;99.90;;;;;;5041523;28;20033;-79
2022/04/09 01:57:46;;;;;;;0.30;0.13;;;1.40;99.90;;;;;;5035011;28;20030;-79
2022/04/09 02:00:12;;;;;;;39.67;4.28;;;1.50;99.90;;;;;;5027621;28;20049;-77
2022/04/09 02:02:38;;;;;;;0.10;0.10;;;1.60;99.90;;;;;;5029420;28;20038;-81
2022/04/09 02:05:05;;;;;;;0.10;0.10;;;1.50;99.90;;;;;;5028414;28;20037;-81
2022/04/09 02:07:31;;;;;;;0.10;0.10;;;1.50;99.90;;;;;;5041863;28;20033;-80
2022/04/09 02:09:57;;;;;;;0.10;0.10;;;1.60;99.90;;;;;;5033597;28;20039;-80
2022/04/09 02:12:22;;;;;;;0.47;0.30;;;1.50;99.90;;;;;;5030769;28;20032;-80
2022/04/09 02:14:49;;;;;;;0.20;0.20;;;1.40;99.90;;;;;;5034699;28;20053;-77
2022/04/09 02:17:15;;;;;;;0.15;0.15;;;1.40;99.90;;;;;;5035107;28;20053;-81
2022/04/09 02:19:41;;;;;;;0.20;0.20;;;1.50;99.90;;;;;;5036004;28;20038;-79
2022/04/09 02:22:07;;;;;;;0.30;0.25;;;1.50;99.90;;;;;;5029294;28;20053;-79
2022/04/09 02:24:32;;;;;;;0.75;0.22;;;1.50;99.90;;;;;;5029975;28;20068;-80
2022/04/09 02:26:58;;;;;;;0.10;0.10;;;1.50;99.90;;;;;;5032770;28;20115;-78
2022/04/09 02:29:24;;;;;;;0.25;0.20;;;1.60;99.90;;;;;;5023455;28;20068;-77
2022/04/09 02:31:50;;;;;;;0.13;0.13;;;1.60;99.90;;;;;;5029802;28;20080;-79
2022/04/09 02:34:16;;;;;;;0.20;0.20;;;1.50;99.90;;;;;;5033741;28;20033;-80
2022/04/09 02:36:41;;;;;;;0.65;0.20;;;1.50;99.90;;;;;;5023020;28;20069;-80
2022/04/09 02:39:07;;;;;;;0.22;0.20;;;1.50;99.90;;;;;;5038548;28;20038;-80
2022/04/09 02:41:33;;;;;;;0.30;0.30;;;1.60;99.90;;;;;;5035090;28;20397;-82
2022/04/09 02:43:59;;;;;;;0.30;0.30;;;1.60;99.90;;;;;;5029518;28;20042;-80
2022/04/09 02:46:25;;;;;;;0.20;0.20;;;1.60;99.90;;;;;;5032124;28;20038;-81
2022/04/09 02:48:51;;;;;;;1.20;0.50;;;1.60;99.90;;;;;;5031282;28;20452;-81
2022/04/09 02:51:17;;;;;;;0.30;0.17;;;1.50;99.90;;;;;;5036463;28;20060;-79
2022/04/09 02:53:44;;;;;;;1.67;0.43;;;1.50;99.90;;;;;;5037137;28;20189;-81
2022/04/09 02:56:10;;;;;;;0.32;0.30;;;1.50;99.90;;;;;;5040239;28;20037;-80
2022/04/09 02:58:35;;;;;;;0.73;0.40;;;1.50;99.90;;;;;;5037883;28;20057;-82
2022/04/09 03:01:01;;;;;;;1.10;0.50;;;1.50;99.90;;;;;;5036408;28;20119;-79
2022/04/09 03:03:27;;;;;;;0.82;0.45;;;1.50;99.90;;;;;;5037603;28;20373;-81
2022/04/09 03:05:52;;;;;;;0.95;0.60;;;1.50;99.90;;;;;;5042273;28;20491;-80
2022/04/09 03:08:18;;;;;;;0.80;0.60;;;1.50;99.90;;;;;;5023810;28;20133;-81
2022/04/09 03:10:43;;;;;;;3.17;0.60;;;1.50;99.90;;;;;;5041921;28;20112;-79
2022/04/09 03:13:09;;;;;;;0.47;0.45;;;1.60;99.90;;;;;;5041914;28;20037;-82
2022/04/09 03:15:35;;;;;;;0.85;0.50;;;1.60;99.90;;;;;;5039133;28;20042;-80
2022/04/09 03:18:00;;;;;;;0.70;0.30;;;1.60;99.90;;;;;;5035508;28;20076;-79
2022/04/09 03:20:26;;;;;;;0.98;0.70;;;1.60;99.90;;;;;;5035903;28;20040;-78
2022/04/09 03:22:52;;;;;;;0.57;0.45;;;1.60;99.90;;;;;;5035823;28;20030;-79
2022/04/09 03:25:18;;;;;;;0.90;0.40;;;1.60;99.90;;;;;;5030428;28;20034;-81
2022/04/09 03:27:43;;;;;;;0.85;0.60;;;1.60;99.90;;;;;;5036814;28;20049;-82
2022/04/09 03:30:10;;;;;;;0.80;0.75;;;1.60;99.90;;;;;;5032626;28;20026;-80
2022/04/09 03:32:37;;;;;;;3.15;1.30;;;1.70;99.90;;;;;;5034853;28;20033;-82
2022/04/09 03:35:07;;;;;;;2.25;0.70;;;1.70;99.90;;;;;;5040548;28;20026;-81
2022/04/09 03:37:36;;;;;;;2.00;0.80;;;1.70;99.90;;;;;;5039056;28;20036;-79
2022/04/09 03:40:07;;;;;;;1.60;1.30;;;1.70;99.90;;;;;;5037394;28;20036;-80
2022/04/09 03:42:33;;;;;;;1.33;0.93;;;1.80;99.90;;;;;;5030335;28;20036;-81
2022/04/09 03:44:59;;;;;;;1.02;0.82;;;1.80;99.90;;;;;;5031425;28;20079;-80
2022/04/09 03:47:24;;;;;;;1.33;0.77;;;1.80;99.90;;;;;;5033551;28;20424;-85
2022/04/09 03:49:50;;;;;;;2.25;1.00;;;1.80;99.90;;;;;;5035233;28;20036;-80
2022/04/09 03:52:16;;;;;;;2.22;1.23;;;1.80;99.90;;;;;;5039900;28;20018;-80
2022/04/09 03:54:42;;;;;;;3.15;1.50;;;1.80;99.90;;;;;;5035356;28;20583;-82
2022/04/09 03:57:11;;;;;;;2.70;1.27;;;1.80;99.90;;;;;;5032935;28;20113;-79
2022/04/09 03:59:36;;;;;;;3.15;1.55;;;1.80;99.90;;;;;;5031450;28;20041;-82
2022/04/09 04:02:02;;;;;;;3.63;1.70;;;1.90;99.90;;;;;;5034629;28;20102;-81
2022/04/09 04:04:28;;;;;;;3.05;1.50;;;1.80;99.90;;;;;;5029110;28;20037;-79
2022/04/09 04:06:54;;;;;;;3.25;1.50;;;1.90;99.90;;;;;;5032761;28;20453;-79
2022/04/09 04:09:19;;;;;;;2.25;1.50;;;1.90;99.90;;;;;;5030242;28;20032;-80
2022/04/09 04:11:46;;;;;;;4.88;1.48;;;1.80;99.90;;;;;;5032025;28;20039;-77
2022/04/09 04:14:12;;;;;;;3.53;1.75;;;1.80;99.90;;;;;;5021399;28;20054;-80
2022/04/09 04:16:38;;;;;;;3.53;1.70;;;1.90;99.90;;;;;;5037767;28;20017;-80
2022/04/09 04:19:04;;;;;;;3.90;1.58;;;2.00;99.90;;;;;;5048376;28;20785;-78
2022/04/09 04:21:30;;;;;;;3.10;1.67;;;2.00;99.90;;;;;;5039435;28;20116;-79
2022/04/09 04:23:56;;;;;;;3.88;1.40;;;2.00;99.90;;;;;;5033479;28;20508;-80
2022/04/09 04:26:21;;;;;;;3.55;2.00;;;1.90;99.90;;;;;;5040621;28;20061;-79
2022/04/09 04:28:48;;;;;;;3.72;1.88;;;2.00;99.90;;;;;;5043635;28;20103;-80
2022/04/09 04:31:20;;;;;;;4.35;2.35;;;2.10;99.90;;;;;;5042886;28;20033;-78
2022/04/09 04:33:46;;;;;;;4.45;1.85;;;2.10;99.90;;;;;;5040509;28;20034;-79
2022/04/09 04:36:11;;;;;;;3.55;2.03;;;2.10;99.90;;;;;;5036091;28;20099;-82
2022/04/09 04:38:37;;;;;;;4.82;2.65;;;2.10;99.90;;;;;;5035615;28;20548;-78
2022/04/09 04:41:04;;;;;;;3.60;2.38;;;2.10;99.90;;;;;;5035346;28;20035;-77
2022/04/09 04:43:30;;;;;;;4.53;2.20;;;2.10;99.90;;;;;;5032107;28;20030;-78
2022/04/09 04:45:56;;;;;;;3.80;1.90;;;2.10;99.90;;;;;;5015077;28;20037;-79
2022/04/09 04:48:22;;;;;;;5.43;2.15;;;2.10;99.90;;;;;;5037419;28;20135;-79
2022/04/09 04:50:48;;;;;;;3.72;2.35;;;2.10;99.90;;;;;;5042917;28;20650;-78
2022/04/09 04:53:14;;;;;;;5.00;2.63;;;2.10;99.90;;;;;;5023094;28;20132;-78
2022/04/09 04:55:39;;;;;;;4.70;2.50;;;2.10;99.90;;;;;;5033025;28;20165;-78
2022/04/09 04:58:05;;;;;;;4.28;2.30;;;2.20;99.90;;;;;;5019305;28;20730;-81
2022/04/09 05:00:31;;;;;;;4.40;2.55;;;2.10;99.90;;;;;;5029539;28;20041;-80
2022/04/09 05:02:58;;;;;;;5.75;2.60;;;2.10;99.90;;;;;;5028576;28;20488;-78
2022/04/09 05:05:25;;;;;;;6.38;2.58;;;2.20;99.90;;;;;;5033285;28;20032;-78
2022/04/09 05:07:52;;;;;;;5.03;2.45;;;2.20;99.90;;;;;;5032755;28;20029;-80
2022/04/09 05:10:23;;;;;;;5.28;2.63;;;2.20;99.90;;;;;;5035421;28;20026;-78
2022/04/09 05:12:51;;;;;;;7.68;3.67;;;2.20;99.90;;;;;;5029740;28;20136;-82
2022/04/09 05:15:18;;;;;;;6.97;3.28;;;2.20;99.90;;;;;;5037785;28;20001;-78
2022/04/09 05:17:44;;;;;;;5.60;2.63;;;2.30;99.90;;;;;;5028741;28;20532;-79
2022/04/09 05:20:14;;;;;;;5.55;3.03;;;2.30;99.90;;;;;;5030215;28;20136;-80
2022/04/09 05:22:43;;;;;;;5.57;2.83;;;2.30;99.90;;;;;;5025955;28;20056;-78
2022/04/09 05:25:10;;;;;;;4.85;2.83;;;2.30;99.90;;;;;;5038800;28;20030;-80
2022/04/09 05:27:37;;;;;;;7.68;3.28;;;2.30;99.90;;;;;;5031242;28;20030;-78
2022/04/09 05:30:04;;;;;;;7.78;3.40;;;2.30;99.90;;;;;;5040914;28;20025;-77
2022/04/09 05:32:31;;;;;;;8.32;3.00;;;2.30;99.90;;;;;;5035726;28;20060;-79
2022/04/09 05:34:57;;;;;;;5.30;3.05;;;2.30;99.90;;;;;;5033120;28;20114;-78
2022/04/09 05:37:23;;;;;;;6.35;3.40;;;2.40;99.90;;;;;;5032453;28;20420;-79
2022/04/09 05:39:48;;;;;;;6.10;3.17;;;2.40;99.90;;;;;;5028393;28;20114;-80
2022/04/09 05:42:15;;;;;;;7.82;4.05;;;2.40;99.90;;;;;;5033536;28;20594;-80
2022/04/09 05:44:40;;;;;;;6.13;3.33;;;2.30;99.90;;;;;;5036925;28;20041;-80
2022/04/09 05:47:06;;;;;;;8.85;4.38;;;2.30;99.90;;;;;;5039964;28;20511;-80
2022/04/09 05:49:32;;;;;;;8.75;3.97;;;2.40;99.90;;;;;;5037367;28;20028;-77
2022/04/09 05:51:58;;;;;;;9.18;4.50;;;2.50;99.90;;;;;;5034727;28;20067;-77
2022/04/09 05:54:24;;;;;;;7.00;3.63;;;2.50;99.90;;;;;;5027814;28;20021;-79
2022/04/09 05:56:50;;;;;;;10.32;4.15;;;2.50;99.90;;;;;;5028323;28;20026;-79
2022/04/09 05:59:16;;;;;;;11.02;5.40;;;2.50;99.90;;;;;;5028554;28;20049;-77
2022/04/09 06:01:42;;;;;;;12.13;5.93;;;2.50;99.90;;;;;;5024424;28;20041;-77
2022/04/09 06:04:08;;;;;;;12.38;5.13;;;2.50;99.90;;;;;;5038817;28;20083;-77
2022/04/09 06:06:34;;;;;;;12.00;6.22;;;2.40;99.90;;;;;;5034931;28;20036;-79
2022/04/09 06:08:59;;;;;;;12.38;6.10;;;2.50;99.90;;;;;;5034007;28;20033;-82
2022/04/09 06:11:25;;;;;;;14.82;6.88;;;2.40;99.90;;;;;;5017117;28;20029;-86
2022/04/09 06:13:51;;;;;;;11.80;6.22;;;2.50;99.90;;;;;;5033875;28;20044;-77
2022/04/09 06:16:16;;;;;;;13.40;6.53;;;2.50;99.90;;;;;;5025755;28;20111;-77
2022/04/09 06:18:43;;;;;;;10.52;5.53;;;2.60;99.90;;;;;;5030082;28;20029;-77
2022/04/09 06:21:09;;;;;;;9.73;4.75;;;2.60;99.90;;;;;;5032328;28;20033;-82
2022/04/09 06:23:35;;;;;;;12.75;6.55;;;2.70;99.90;;;;;;5040291;28;20036;-78
2022/04/09 06:26:01;;;;;;;10.40;5.72;;;2.70;99.90;;;;;;5031435;28;20040;-78
2022/04/09 06:28:27;;;;;;;12.40;5.50;;;2.70;99.90;;;;;;5037716;28;20053;-77
2022/04/09 06:30:53;;;;;;;11.90;6.15;;;2.60;99.90;;;;;;5037688;28;20033;-78
2022/04/09 06:33:21;;;;;;;15.52;7.13;;;2.60;99.90;;;;;;5036529;28;20025;-78
2022/04/09 06:35:47;;;;;;;12.63;6.25;;;2.70;99.90;;;;;;5031301;28;20528;-78
2022/04/09 06:38:13;;;;;;;13.15;6.47;;;2.80;99.90;;;;;;5041031;28;20064;-77
2022/04/09 06:40:39;;;;;;;15.40;6.78;;;2.80;99.90;;;;;;5041037;28;20043;-78
2022/04/09 06:43:05;;;;;;;15.38;6.95;;;2.90;99.90;;;;;;5042309;28;20103;-85
2022/04/09 06:45:31;;;;;;;15.75;6.65;;;2.90;99.90;;;;;;5044032;28;20487;-76
2022/04/09 06:47:57;;;;;;;15.10;6.50;;;2.80;99.90;;;;;;5035559;28;20049;-76
2022/04/09 06:50:22;;;;;;;11.50;5.60;;;2.80;99.90;;;;;;5034379;28;20029;-79
2022/04/09 06:52:48;;;;;;;11.35;5.82;;;2.70;99.90;;;;;;5023751;28;20034;-78
2022/04/09 06:55:14;;;;;;;14.00;7.70;;;2.60;99.90;;;;;;5036382;28;20451;-79
2022/04/09 06:57:44;;;;;;;14.02;6.13;;;2.60;99.90;;;;;;5028423;28;20594;-83
2022/04/09 07:00:12;;;;;;;12.98;5.82;;;2.70;99.90;;;;;;5035807;28;20041;-76
2022/04/09 07:02:39;;;;;;;14.60;7.13;;;3.00;99.90;;;;;;5041196;28;20037;-80
2022/04/09 07:05:05;;;;;;;15.05;8.23;;;3.10;99.90;;;;;;5040413;28;20116;-77
2022/04/09 07:07:31;;;;;;;13.63;7.47;;;3.20;99.90;;;;;;5034106;28;20037;-78
2022/04/09 07:10:06;;;;;;;14.80;7.90;;;3.40;99.90;;;;;;5038271;28;20519;-78
2022/04/09 07:12:32;;;;;;;14.90;6.47;;;3.40;99.90;;;;;;5033652;28;20030;-79
2022/04/09 07:14:58;;;;;;;13.98;8.82;;;3.50;99.90;;;;;;5034061;28;20478;-79
2022/04/09 07:17:29;;;;;;;16.92;8.25;;;3.50;99.90;;;;;;5038773;28;20033;-78
2022/04/09 07:20:02;;;;;;;9.85;5.95;;;3.60;99.90;;;;;;5036449;28;20409;-83
2022/04/09 07:22:28;;;;;;;13.02;6.63;;;3.80;99.90;;;;;;5039238;28;20037;-80
2022/04/09 07:24:55;;;;;;;12.82;6.72;;;3.90;99.90;;;;;;5035745;28;20462;-79
2022/04/09 07:27:21;;;;;;;13.18;6.35;;;4.10;99.90;;;;;;5041361;28;20078;-79
2022/04/09 07:29:47;;;;;;;18.30;8.68;;;4.10;99.90;;;;;;5038871;28;20029;-78
2022/04/09 07:32:13;;;;;;;14.63;6.75;;;4.20;99.90;;;;;;5034631;28;20122;-77
2022/04/09 07:34:38;;;;;;;14.45;8.20;;;4.40;99.90;;;;;;5026680;28;20061;-77
2022/04/09 07:37:05;;;;;;;14.27;7.45;;;4.30;99.90;;;;;;5029905;28;20033;-77
2022/04/09 07:39:30;;;;;;;14.88;6.75;;;4.50;99.90;;;;;;5041842;28;20057;-78
2022/04/09 07:41:56;;;;;;;11.55;6.47;;;4.50;99.90;;;;;;5042690;28;20542;-77
2022/04/09 07:44:23;;;;;;;14.00;6.57;;;4.50;99.90;;;;;;5037487;28;20103;-77
2022/04/09 07:46:49;;;;;;;18.00;6.95;;;4.30;99.90;;;;;;5035110;28;20033;-77
2022/04/09 07:49:15;;;;;;;11.43;5.28;;;4.30;99.90;;;;;;5036965;28;20108;-80
2022/04/09 07:51:41;;;;;;;10.88;4.50;;;4.40;99.90;;;;;;5037021;28;20049;-78
2022/04/09 07:54:06;;;;;;;12.00;4.97;;;4.10;99.90;;;;;;5035357;28;20025;-79
2022/04/09 07:56:32;;;;;;;10.68;5.95;;;4.10;99.90;;;;;;5028234;28;20439;-79
2022/04/09 07:58:58;;;;;;;9.68;4.68;;;4.20;99.90;;;;;;5037583;28;20602;-79
2022/04/09 08:01:23;;;;;;;13.52;5.07;;;4.20;99.90;;;;;;5031734;28;20033;-78
2022/04/09 08:03:49;;;;;;;10.45;4.85;;;4.30;99.90;;;;;;5035450;28;20037;-78
2022/04/09 08:06:16;;;;;;;11.35;5.70;;;4.60;99.90;;;;;;5035958;28;20034;-81
2022/04/09 08:08:41;;;;;;;13.00;6.93;;;4.80;99.90;;;;;;5035586;28;20436;-78
2022/04/09 08:11:08;;;;;;;13.40;6.38;;;4.90;99.90;;;;;;5029686;28;20082;-78
2022/04/09 08:13:34;;;;;;;7.28;4.47;;;5.20;99.90;;;;;;5031731;28;20026;-78
2022/04/09 08:16:00;;;;;;;9.25;5.50;;;5.00;99.90;;;;;;5037027;28;20503;-77
2022/04/09 08:18:26;;;;;;;9.40;4.05;;;5.00;99.90;;;;;;5043618;28;20064;-77
2022/04/09 08:20:52;;;;;;;11.63;5.70;;;4.80;99.90;;;;;;5036090;28;20029;-77
2022/04/09 08:23:18;;;;;;;9.23;5.20;;;5.20;99.90;;;;;;5039261;28;20029;-77
2022/04/09 08:25:43;;;;;;;9.30;4.32;;;5.00;99.90;;;;;;5036721;28;20059;-76
2022/04/09 08:28:09;;;;;;;9.45;4.65;;;4.70;99.90;;;;;;5037282;28;20103;-79
2022/04/09 08:30:36;;;;;;;6.82;3.63;;;4.80;99.90;;;;;;5027757;28;20044;-77
2022/04/09 08:33:05;;;;;;;11.43;3.15;;;4.80;99.90;;;;;;5025548;28;20107;-83
2022/04/09 08:35:31;;;;;;;5.45;3.00;;;4.70;99.90;;;;;;5025173;28;20285;-78
2022/04/09 08:37:58;;;;;;;5.53;3.25;;;4.70;99.90;;;;;;5040747;28;20025;-78
2022/04/09 08:40:25;;;;;;;6.65;3.40;;;5.00;99.90;;;;;;5040549;28;20057;-78
2022/04/09 08:42:51;;;;;;;4.45;2.85;;;5.00;99.90;;;;;;5039267;28;20037;-83
2022/04/09 08:45:17;;;;;;;9.73;3.15;;;5.10;99.90;;;;;;5031374;28;20109;-87
2022/04/09 08:47:44;;;;;;;6.43;4.20;;;5.20;99.90;;;;;;5030339;28;20041;-77
2022/04/09 08:50:14;;;;;;;6.20;3.47;;;5.60;99.90;;;;;;5030264;28;20025;-76
2022/04/09 08:52:42;;;;;;;5.88;3.13;;;5.40;99.90;;;;;;5030261;28;20057;-77
2022/04/09 08:55:09;;;;;;;10.05;3.85;;;5.30;99.90;;;;;;5035160;28;20059;-77
2022/04/09 08:57:37;;;;;;;5.28;3.10;;;5.70;99.90;;;;;;5040088;28;20029;-76
2022/04/09 09:00:13;;;;;;;7.95;3.50;;;5.20;99.90;;;;;;5036358;28;20077;-76
2022/04/09 09:02:50;;;;;;;6.00;2.83;;;5.10;99.90;;;;;;5038061;28;20044;-81
2022/04/09 09:05:35;;;;;;;7.07;3.03;;;5.50;99.90;;;;;;5036024;28;20034;-77
2022/04/09 09:08:02;;;;;;;7.68;2.80;;;5.80;99.90;;;;;;5030871;28;20039;-78
2022/04/09 09:10:28;;;;;;;3.90;2.85;;;5.80;99.90;;;;;;5031067;28;20036;-80
2022/04/09 09:13:09;;;;;;;8.00;3.13;;;5.30;99.90;;;;;;5033130;28;20057;-78
2022/04/09 09:15:46;;;;;;;5.68;3.05;;;5.20;99.90;;;;;;5044055;28;20039;-76
2022/04/09 09:18:25;;;;;;;6.30;3.35;;;5.70;99.90;;;;;;5031372;28;20040;-76
2022/04/09 09:20:56;;;;;;;3.33;1.98;;;6.20;99.90;;;;;;5033466;28;20980;-78
2022/04/09 09:23:23;;;;;;;4.38;1.88;;;6.00;97.10;;;;;;5032636;28;20555;-77
2022/04/09 09:25:54;;;;;;;4.20;1.70;;;5.80;99.90;;;;;;5034919;28;20092;-77
2022/04/09 09:28:25;;;;;;;3.72;1.80;;;5.20;97.30;;;;;;5024636;28;20110;-76
2022/04/09 09:30:51;;;;;;;3.28;2.00;;;5.00;99.90;;;;;;5035036;28;20123;-75
2022/04/09 09:33:17;;;;;;;3.63;1.77;;;5.60;96.60;;;;;;5035244;28;20219;-77
2022/04/09 09:35:56;;;;;;;2.17;1.30;;;5.50;98.90;;;;;;5041556;28;20028;-77
2022/04/09 09:38:30;;;;;;;7.15;2.25;;;5.60;93.40;;;;;;5032389;28;20037;-76
2022/04/09 09:40:57;;;;;;;4.70;2.10;;;5.40;92.50;;;;;;5029410;28;20036;-76
2022/04/09 09:43:25;;;;;;;3.33;1.80;;;5.40;98.90;;;;;;5032929;28;20647;-76
2022/04/09 09:45:53;;;;;;;3.20;1.42;;;5.40;97.50;;;;;;5031854;28;20488;-78
2022/04/09 09:48:29;;;;;;;4.30;1.67;;;5.40;94.70;;;;;;5032677;28;20033;-77
2022/04/09 09:50:57;;;;;;;5.00;2.75;;;5.40;95.70;;;;;;5023330;28;20036;-77
2022/04/09 09:53:33;;;;;;;2.40;1.85;;;5.60;99.90;;;;;;5022297;28;20577;-77
2022/04/09 09:56:00;;;;;;;4.88;2.75;;;5.70;97.50;;;;;;5037528;28;20037;-77
2022/04/09 09:58:28;;;;;;;5.00;2.42;;;5.70;94.80;;;;;;5031003;28;20156;-77
2022/04/09 10:00:58;;;;;;;8.10;1.80;;;6.20;99.90;;;;;;5030231;28;20033;-77
2022/04/09 10:03:25;;;;;;;2.55;1.67;;;6.40;94.00;;;;;;5047722;28;20032;-77
2022/04/09 10:05:51;;;;;;;3.92;1.95;;;5.80;89.10;;;;;;5031805;28;20021;-75
2022/04/09 10:08:21;;;;;;;3.08;2.03;;;5.80;99.90;;;;;;5027658;28;20037;-76
2022/04/09 10:10:51;;;;;;;6.00;2.20;;;6.00;97.40;;;;;;5030232;28;20029;-76
2022/04/09 10:13:24;;;;;;;3.70;1.73;;;5.80;96.80;;;;;;5039957;28;20112;-77
2022/04/09 10:15:50;;;;;;;4.07;1.83;;;5.70;94.80;;;;;;5031195;28;20198;-76
2022/04/09 10:18:24;;;;;;;6.05;1.98;;;5.40;94.10;;;;;;5036984;28;20102;-76
2022/04/09 10:20:59;;;;;;;10.30;2.38;;;5.50;97.80;;;;;;5033225;28;20108;-76
2022/04/09 10:23:32;;;;;;;3.65;2.10;;;5.90;97.60;;;;;;5028176;28;20555;-77
2022/04/09 10:26:00;;;;;;;6.22;2.30;;;5.90;94.00;;;;;;5024293;28;20669;-76
2022/04/09 10:28:47;;;;;;;2.67;1.70;;;5.50;97.40;;;;;;5028059;28;20096;-76
2022/04/09 10:31:28;;;;;;;2.92;2.03;;;5.40;93.80;;;;;;5032805;28;20029;-76
2022/04/09 10:33:58;;;;;;;4.40;1.52;;;5.20;97.10;;;;;;5029677;28;20024;-76
2022/04/09 10:36:45;;;;;;;5.03;1.33;;;5.10;88.70;;;;;;5038739;28;20031;-76
2022/04/09 10:39:39;;;;;;;4.00;1.67;;;5.30;91.10;;;;;;5031482;28;20033;-76
2022/04/09 10:42:09;;;;;;;3.67;1.45;;;5.20;93.60;;;;;;5030986;28;20029;-76
2022/04/09 10:44:43;;;;;;;4.38;1.77;;;4.70;95.40;;;;;;5032247;28;20036;-77
2022/04/09 10:47:14;;;;;;;3.25;1.88;;;4.70;94.20;;;;;;5019507;28;20025;-76
2022/04/09 10:49:59;;;;;;;2.45;1.35;;;4.90;94.90;;;;;;5030615;28;20040;-76
2022/04/09 10:52:31;;;;;;;3.97;1.58;;;4.80;89.40;;;;;;5032195;28;20029;-76
2022/04/09 10:55:23;;;;;;;5.03;1.33;;;5.20;91.50;;;;;;5039117;28;20040;-76
2022/04/09 10:57:52;;;;;;;4.43;1.58;;;5.40;89.60;;;;;;5032317;28;20056;-76
2022/04/09 11:00:20;;;;;;;4.88;1.95;;;6.10;85.30;;;;;;5032890;28;20053;-76
2022/04/09 11:03:03;;;;;;;7.78;2.50;;;6.30;81.20;;;;;;5033232;28;20082;-76
2022/04/09 11:05:28;;;;;;;2.55;1.50;;;5.90;83.10;;;;;;5026055;28;20029;-83
2022/04/09 11:08:05;;;;;;;2.35;1.58;;;5.80;85.00;;;;;;5027541;28;20041;-82
2022/04/09 11:10:31;;;;;;;3.92;2.10;;;5.70;84.40;;;;;;5032824;28;20075;-80
2022/04/09 11:12:56;;;;;;;3.20;1.30;;;6.10;90.40;;;;;;5031276;28;20021;-76
2022/04/09 11:15:22;;;;;;;1.77;1.02;;;6.40;78.00;;;;;;5036601;28;20033;-80
2022/04/09 11:17:48;;;;;;;3.58;1.10;;;6.80;67.00;;;;;;5037057;28;20054;-82
2022/04/09 11:20:15;;;;;;;2.50;1.52;;;5.90;72.80;;;;;;5038569;28;20485;-79
2022/04/09 11:23:05;;;;;;;2.88;1.48;;;5.70;85.80;;;;;;5024683;28;20037;-78
2022/04/09 11:25:32;;;;;;;3.07;1.27;;;5.70;86.20;;;;;;5021990;28;20037;-79
2022/04/09 11:28:13;;;;;;;3.50;1.55;;;5.60;75.00;;;;;;5035113;28;20037;-80
2022/04/09 11:30:50;;;;;;;;;;;5.40;78.40;;;;;;5039242;28;20522;-79
2022/04/09 11:33:16;;;;;;;5.00;1.75;;;5.40;82.00;;;;;;5039011;28;19909;-81
2022/04/09 11:35:42;;;;;;;4.35;1.35;;;5.50;79.80;;;;;;5040710;28;20656;-79
2022/04/09 11:38:11;;;;;;;2.25;1.70;;;5.70;95.80;;;;;;5029475;28;20040;-79
2022/04/09 11:40:42;;;;;;;2.58;1.50;;;5.60;81.40;;;;;;5031396;28;20034;-79
2022/04/09 11:43:08;;;;;;;2.40;1.25;;;5.80;93.80;;;;;;5033807;28;20431;-80
2022/04/09 11:45:34;;;;;;;3.25;1.58;;;6.30;82.50;;;;;;5028831;28;20036;-78
2022/04/09 11:48:01;;;;;;;4.80;1.98;;;6.60;68.00;;;;;;5019643;28;20538;-79
2022/04/09 11:50:31;;;;;;;3.08;1.52;;;7.00;73.30;;;;;;5062585;28;20017;-79
2022/04/09 11:53:10;;;;;;;3.35;1.70;;;6.80;71.50;;;;;;5036245;28;20373;-80
2022/04/09 11:55:36;;;;;;;2.83;1.42;;;6.80;71.10;;;;;;5035292;28;20026;-78
2022/04/09 11:58:02;;;;;;;3.72;1.65;;;6.40;69.60;;;;;;5035041;28;20057;-78
2022/04/09 12:00:30;;;;;;;1.83;1.42;;;6.40;76.60;;;;;;5028766;28;20068;-79
2022/04/09 12:03:04;;;;;;;2.72;1.50;;;7.00;80.90;;;;;;5033119;28;20086;-77
2022/04/09 12:05:46;;;;;;;1.75;1.50;;;8.90;71.60;;;;;;5033541;28;20040;-80
2022/04/09 12:08:15;;;;;;;4.15;1.90;;;8.80;64.70;;;;;;5040032;28;20136;-79
2022/04/09 12:11:13;;;;;;;2.83;1.63;;;9.00;66.60;;;;;;5045122;28;20040;-80
2022/04/09 12:13:40;;;;;;;3.17;2.08;;;8.60;64.50;;;;;;5006869;28;20038;-80
2022/04/09 12:16:16;;;;;;;2.25;1.67;;;8.90;58.40;;;;;;5038374;28;20043;-79
2022/04/09 12:18:42;;;;;;;2.80;1.20;;;9.60;60.20;;;;;;5033955;28;20021;-80
2022/04/09 12:21:22;;;;;;;5.82;1.83;;;10.60;54.90;;;;;;5055891;28;20021;-81
2022/04/09 12:24:01;;;;;;;1.13;1.00;;;10.50;52.00;;;;;;5051248;28;20024;-79
2022/04/09 12:26:28;;;;;;;1.97;1.23;;;9.80;50.60;;;;;;5062211;28;20428;-80
2022/04/09 12:29:13;;;;;;;2.25;1.10;;;9.90;50.80;;;;;;5068811;28;20033;-78
2022/04/09 12:31:40;;;;;;;2.25;1.25;;;11.00;49.50;;;;;;5061927;28;20139;-79
2022/04/09 12:34:06;;;;;;;1.70;1.20;;;12.10;48.80;;;;;;5063672;28;20017;-75
2022/04/09 12:36:32;;;;;;;2.30;1.40;;;12.20;49.90;;;;;;5060003;28;20031;-78
2022/04/09 12:39:00;;;;;;;2.83;1.75;;;10.50;47.20;;;;;;5053959;28;20302;-74
2022/04/09 12:41:26;;;;;;;3.28;1.77;;;9.30;52.50;;;;;;5044495;28;20032;-82
2022/04/09 12:43:52;;;;;;;2.75;1.23;;;8.80;55.00;;;;;;5054997;28;20064;-79
2022/04/09 12:46:19;;;;;;;2.72;1.50;;;8.30;55.10;;;;;;5063013;28;20472;-81
2022/04/09 12:48:49;;;;;;;1.50;1.40;;;8.70;55.70;;;;;;5043356;28;20112;-82
2022/04/09 12:51:20;;;;;;;1.92;1.30;;;8.20;58.10;;;;;;5047021;28;20777;-83
2022/04/09 12:53:48;;;;;;;;;;;7.80;55.10;;;;;;5044246;28;20036;-77
2022/04/09 12:56:15;;;;;;;3.63;2.50;;;7.70;58.30;;;;;;5028286;28;20576;-77
2022/04/09 12:58:42;;;;;;;2.05;1.50;;;8.10;57.40;;;;;;5011601;28;20084;-80